sensor_id;sensor_type;location;lat;lon;timestamp;pressure;altitude;pressure_sealevel;temperature;humidity
47716;BME280;33476;50.984;3.538;2024-03-29T00:01:46;98989.34;;;12.38;50.14
47716;BME280;33476;50.984;3.538;2024-03-29T00:04:12;98997.38;;;12.46;50.08
47716;BME280;33476;50.984;3.538;2024-03-29T00:06:37;98986.41;;;12.52;50.09
47716;BME280;33476;50.984;3.538;2024-03-29T00:09:03;98995.06;;;12.53;49.96
47716;BME280;33476;50.984;3.538;2024-03-29T00:11:29;98986.41;;;12.52;49.84
47716;BME280;33476;50.984;3.538;2024-03-29T00:13:56;98996.41;;;12.47;50.17
47716;BME280;33476;50.984;3.538;2024-03-29T00:16:23;99005.09;;;12.48;50.17
47716;BME280;33476;50.984;3.538;2024-03-29T00:18:51;98998.53;;;12.53;50.18
47716;BME280;33476;50.984;3.538;2024-03-29T00:21:17;98995.63;;;12.56;49.90
47716;BME280;33476;50.984;3.538;2024-03-29T00:23:42;98993.16;;;12.55;49.37
47716;BME280;33476;50.984;3.538;2024-03-29T00:26:09;99008.53;;;12.48;49.60
47716;BME280;33476;50.984;3.538;2024-03-29T00:28:34;98998.91;;;12.49;49.64
47716;BME280;33476;50.984;3.538;2024-03-29T00:30:59;99034.34;;;12.53;49.58
47716;BME280;33476;50.984;3.538;2024-03-29T00:33:25;99004.47;;;12.55;49.52
47716;BME280;33476;50.984;3.538;2024-03-29T00:35:50;99014.69;;;12.58;49.78
47716;BME280;33476;50.984;3.538;2024-03-29T00:38:15;99017.72;;;12.63;49.80
47716;BME280;33476;50.984;3.538;2024-03-29T00:40:41;99016.06;;;12.62;49.37
47716;BME280;33476;50.984;3.538;2024-03-29T00:43:06;99031.66;;;12.64;49.36
47716;BME280;33476;50.984;3.538;2024-03-29T00:45:32;99018.81;;;12.61;49.19
47716;BME280;33476;50.984;3.538;2024-03-29T00:47:58;99028.34;;;12.62;49.34
47716;BME280;33476;50.984;3.538;2024-03-29T00:50:23;99016.06;;;12.62;49.47
47716;BME280;33476;50.984;3.538;2024-03-29T00:52:48;99028.34;;;12.62;49.46
47716;BME280;33476;50.984;3.538;2024-03-29T00:55:14;99024.19;;;12.59;49.55
47716;BME280;33476;50.984;3.538;2024-03-29T00:57:39;99032.06;;;12.59;49.46
47716;BME280;33476;50.984;3.538;2024-03-29T01:00:05;99026.00;;;12.59;49.67
47716;BME280;33476;50.984;3.538;2024-03-29T01:02:31;99034.28;;;12.64;49.21
47716;BME280;33476;50.984;3.538;2024-03-29T01:04:56;99028.78;;;12.67;49.01
47716;BME280;33476;50.984;3.538;2024-03-29T01:07:22;99030.81;;;12.63;48.86
47716;BME280;33476;50.984;3.538;2024-03-29T01:09:47;99032.75;;;12.61;49.08
47716;BME280;33476;50.984;3.538;2024-03-29T01:12:12;99016.75;;;12.64;49.02
47716;BME280;33476;50.984;3.538;2024-03-29T01:14:38;99003.16;;;12.71;48.71
47716;BME280;33476;50.984;3.538;2024-03-29T01:17:03;99001.63;;;12.68;48.61
47716;BME280;33476;50.984;3.538;2024-03-29T01:19:29;98999.00;;;12.68;48.85
47716;BME280;33476;50.984;3.538;2024-03-29T01:21:54;98991.28;;;12.67;48.88
47716;BME280;33476;50.984;3.538;2024-03-29T01:24:20;99008.66;;;12.68;48.59
47716;BME280;33476;50.984;3.538;2024-03-29T01:26:45;99009.50;;;12.68;48.73
47716;BME280;33476;50.984;3.538;2024-03-29T01:29:11;98997.75;;;12.62;48.58
47716;BME280;33476;50.984;3.538;2024-03-29T01:31:36;98994.75;;;12.67;48.69
47716;BME280;33476;50.984;3.538;2024-03-29T01:34:02;98990.59;;;12.74;48.69
47716;BME280;33476;50.984;3.538;2024-03-29T01:36:28;99012.00;;;12.79;48.59
47716;BME280;33476;50.984;3.538;2024-03-29T01:38:54;98981.53;;;12.78;48.54
47716;BME280;33476;50.984;3.538;2024-03-29T01:41:22;99003.44;;;12.68;48.90
47716;BME280;33476;50.984;3.538;2024-03-29T01:43:49;98995.81;;;12.64;49.09
47716;BME280;33476;50.984;3.538;2024-03-29T01:46:15;98993.19;;;12.64;49.08
47716;BME280;33476;50.984;3.538;2024-03-29T01:48:40;99007.69;;;12.69;48.77
47716;BME280;33476;50.984;3.538;2024-03-29T01:51:06;98999.16;;;12.67;48.67
47716;BME280;33476;50.984;3.538;2024-03-29T01:53:32;98997.91;;;12.71;48.80
47716;BME280;33476;50.984;3.538;2024-03-29T01:55:59;98995.16;;;12.72;48.60
47716;BME280;33476;50.984;3.538;2024-03-29T01:58:26;99004.56;;;12.75;48.56
47716;BME280;33476;50.984;3.538;2024-03-29T02:00:57;99021.50;;;12.71;49.05
47716;BME280;33476;50.984;3.538;2024-03-29T02:03:23;99022.72;;;12.67;48.79
47716;BME280;33476;50.984;3.538;2024-03-29T02:05:49;99034.28;;;12.64;48.74
47716;BME280;33476;50.984;3.538;2024-03-29T02:08:15;99026.56;;;12.62;48.55
47716;BME280;33476;50.984;3.538;2024-03-29T02:10:41;99035.50;;;12.60;49.03
47716;BME280;33476;50.984;3.538;2024-03-29T02:13:07;99040.47;;;12.63;49.10
47716;BME280;33476;50.984;3.538;2024-03-29T02:15:32;99052.03;;;12.60;48.92
47716;BME280;33476;50.984;3.538;2024-03-29T02:17:58;99027.19;;;12.55;49.16
47716;BME280;33476;50.984;3.538;2024-03-29T02:20:24;99030.09;;;12.52;49.07
47716;BME280;33476;50.984;3.538;2024-03-29T02:22:55;99020.81;;;12.48;49.16
47716;BME280;33476;50.984;3.538;2024-03-29T02:25:22;99025.53;;;12.54;49.21
47716;BME280;33476;50.984;3.538;2024-03-29T02:27:48;99020.03;;;12.57;49.13
47716;BME280;33476;50.984;3.538;2024-03-29T02:30:14;99007.91;;;12.56;49.55
47716;BME280;33476;50.984;3.538;2024-03-29T02:32:40;99030.22;;;12.50;49.66
47716;BME280;33476;50.984;3.538;2024-03-29T02:35:06;99048.78;;;12.47;49.86
47716;BME280;33476;50.984;3.538;2024-03-29T02:37:32;99027.66;;;12.39;50.58
47716;BME280;33476;50.984;3.538;2024-03-29T02:39:57;99020.91;;;12.36;50.59
47716;BME280;33476;50.984;3.538;2024-03-29T02:42:22;99036.59;;;12.36;51.00
47716;BME280;33476;50.984;3.538;2024-03-29T02:44:48;99040.69;;;12.29;51.21
47716;BME280;33476;50.984;3.538;2024-03-29T02:47:13;99036.69;;;12.25;51.51
47716;BME280;33476;50.984;3.538;2024-03-29T02:49:38;99041.38;;;12.31;51.91
47716;BME280;33476;50.984;3.538;2024-03-29T02:52:04;99042.81;;;12.35;51.84
47716;BME280;33476;50.984;3.538;2024-03-29T02:54:29;99040.00;;;12.27;52.40
47716;BME280;33476;50.984;3.538;2024-03-29T02:56:55;99042.16;;;12.22;52.59
47716;BME280;33476;50.984;3.538;2024-03-29T02:59:20;99055.22;;;12.22;53.09
47716;BME280;33476;50.984;3.538;2024-03-29T03:01:45;99048.00;;;12.15;53.13
47716;BME280;33476;50.984;3.538;2024-03-29T03:04:11;99039.34;;;12.14;53.46
47716;BME280;33476;50.984;3.538;2024-03-29T03:06:36;99040.69;;;12.08;54.02
47716;BME280;33476;50.984;3.538;2024-03-29T03:09:01;99055.94;;;12.03;54.56
47716;BME280;33476;50.984;3.538;2024-03-29T03:11:45;99056.19;;;12.00;54.71
47716;BME280;33476;50.984;3.538;2024-03-29T03:14:11;99058.47;;;11.94;55.35
47716;BME280;33476;50.984;3.538;2024-03-29T03:16:36;99048.38;;;11.89;55.74
47716;BME280;33476;50.984;3.538;2024-03-29T03:19:01;99046.97;;;11.85;55.98
47716;BME280;33476;50.984;3.538;2024-03-29T03:21:27;99058.50;;;11.82;56.38
47716;BME280;33476;50.984;3.538;2024-03-29T03:23:52;99073.25;;;11.72;56.89
47716;BME280;33476;50.984;3.538;2024-03-29T03:26:18;99065.53;;;11.71;57.13
47716;BME280;33476;50.984;3.538;2024-03-29T03:28:43;99081.09;;;11.72;57.23
47716;BME280;33476;50.984;3.538;2024-03-29T03:31:08;99076.69;;;11.73;57.02
47716;BME280;33476;50.984;3.538;2024-03-29T03:33:34;99096.06;;;11.70;57.34
47716;BME280;33476;50.984;3.538;2024-03-29T03:35:59;99086.69;;;11.68;57.62
47716;BME280;33476;50.984;3.538;2024-03-29T03:38:25;99075.63;;;11.64;57.87
47716;BME280;33476;50.984;3.538;2024-03-29T03:40:50;99078.63;;;11.60;58.27
47716;BME280;33476;50.984;3.538;2024-03-29T03:43:15;99083.88;;;11.60;58.31
47716;BME280;33476;50.984;3.538;2024-03-29T03:45:41;99075.91;;;11.61;58.30
47716;BME280;33476;50.984;3.538;2024-03-29T03:48:08;99073.50;;;11.58;58.59
47716;BME280;33476;50.984;3.538;2024-03-29T03:50:34;99074.72;;;11.54;58.82
47716;BME280;33476;50.984;3.538;2024-03-29T03:53:00;99079.00;;;11.55;58.93
47716;BME280;33476;50.984;3.538;2024-03-29T03:55:26;99076.63;;;11.52;59.09
47716;BME280;33476;50.984;3.538;2024-03-29T03:57:52;99068.91;;;11.50;59.55
47716;BME280;33476;50.984;3.538;2024-03-29T04:00:19;99077.81;;;11.48;59.85
47716;BME280;33476;50.984;3.538;2024-03-29T04:02:51;99079.00;;;11.33;60.42
47716;BME280;33476;50.984;3.538;2024-03-29T04:05:17;99073.09;;;11.31;60.89
47716;BME280;33476;50.984;3.538;2024-03-29T04:07:43;99079.75;;;11.23;61.50
47716;BME280;33476;50.984;3.538;2024-03-29T04:10:08;99072.72;;;11.24;61.43
47716;BME280;33476;50.984;3.538;2024-03-29T04:12:34;99073.34;;;11.28;61.35
47716;BME280;33476;50.984;3.538;2024-03-29T04:14:59;99071.44;;;11.30;61.28
47716;BME280;33476;50.984;3.538;2024-03-29T04:17:24;99082.59;;;11.32;61.28
47716;BME280;33476;50.984;3.538;2024-03-29T04:19:50;99078.78;;;11.24;61.46
47716;BME280;33476;50.984;3.538;2024-03-29T04:22:15;99074.28;;;11.15;61.82
47716;BME280;33476;50.984;3.538;2024-03-29T04:24:41;99071.78;;;11.14;61.92
47716;BME280;33476;50.984;3.538;2024-03-29T04:27:06;99054.34;;;11.14;62.10
47716;BME280;33476;50.984;3.538;2024-03-29T04:29:31;99048.66;;;11.09;61.95
47716;BME280;33476;50.984;3.538;2024-03-29T04:31:57;99063.47;;;11.09;62.19
47716;BME280;33476;50.984;3.538;2024-03-29T04:34:22;99057.31;;;11.10;62.13
47716;BME280;33476;50.984;3.538;2024-03-29T04:36:47;99046.25;;;11.06;62.29
47716;BME280;33476;50.984;3.538;2024-03-29T04:39:13;99035.09;;;11.04;62.25
47716;BME280;33476;50.984;3.538;2024-03-29T04:41:38;99042.25;;;11.02;62.18
47716;BME280;33476;50.984;3.538;2024-03-29T04:44:04;99037.63;;;10.94;62.67
47716;BME280;33476;50.984;3.538;2024-03-29T04:46:30;99049.59;;;10.97;62.60
47716;BME280;33476;50.984;3.538;2024-03-29T04:48:56;99049.47;;;10.98;62.48
47716;BME280;33476;50.984;3.538;2024-03-29T04:51:22;99050.44;;;10.97;62.69
47716;BME280;33476;50.984;3.538;2024-03-29T04:53:47;99046.84;;;10.98;62.60
47716;BME280;33476;50.984;3.538;2024-03-29T04:56:13;99046.50;;;11.03;62.36
47716;BME280;33476;50.984;3.538;2024-03-29T04:58:38;99044.34;;;11.08;62.09
47716;BME280;33476;50.984;3.538;2024-03-29T05:01:04;99043.31;;;11.11;62.21
47716;BME280;33476;50.984;3.538;2024-03-29T05:03:29;99058.72;;;11.14;61.94
47716;BME280;33476;50.984;3.538;2024-03-29T05:05:56;99064.56;;;11.17;61.91
47716;BME280;33476;50.984;3.538;2024-03-29T05:08:21;99063.00;;;11.15;62.17
47716;BME280;33476;50.984;3.538;2024-03-29T05:10:50;99075.72;;;11.19;61.93
47716;BME280;33476;50.984;3.538;2024-03-29T05:13:17;99083.44;;;11.21;62.06
47716;BME280;33476;50.984;3.538;2024-03-29T05:15:42;99083.78;;;11.05;62.35
47716;BME280;33476;50.984;3.538;2024-03-29T05:18:08;99077.75;;;11.05;62.22
47716;BME280;33476;50.984;3.538;2024-03-29T05:20:33;99077.50;;;11.08;62.46
47716;BME280;33476;50.984;3.538;2024-03-29T05:22:59;99086.06;;;11.10;62.35
47716;BME280;33476;50.984;3.538;2024-03-29T05:25:25;99083.06;;;11.14;62.26
47716;BME280;33476;50.984;3.538;2024-03-29T05:27:50;99095.31;;;11.14;62.07
47716;BME280;33476;50.984;3.538;2024-03-29T05:30:16;99100.06;;;11.20;62.13
47716;BME280;33476;50.984;3.538;2024-03-29T05:32:41;99114.66;;;11.22;62.10
47716;BME280;33476;50.984;3.538;2024-03-29T05:35:07;99121.34;;;11.27;61.78
47716;BME280;33476;50.984;3.538;2024-03-29T05:37:35;99116.44;;;11.22;62.14
47716;BME280;33476;50.984;3.538;2024-03-29T05:40:00;99117.41;;;11.21;62.13
47716;BME280;33476;50.984;3.538;2024-03-29T05:42:30;99109.69;;;11.19;62.41
47716;BME280;33476;50.984;3.538;2024-03-29T05:44:56;99115.88;;;11.18;62.25
47716;BME280;33476;50.984;3.538;2024-03-29T05:47:22;99125.59;;;11.16;62.28
47716;BME280;33476;50.984;3.538;2024-03-29T05:49:48;99140.94;;;11.21;62.35
47716;BME280;33476;50.984;3.538;2024-03-29T05:52:14;99149.72;;;11.20;62.51
47716;BME280;33476;50.984;3.538;2024-03-29T05:54:43;99151.38;;;11.21;62.66
47716;BME280;33476;50.984;3.538;2024-03-29T05:57:09;99151.03;;;11.25;62.58
47716;BME280;33476;50.984;3.538;2024-03-29T05:59:37;99155.53;;;11.23;62.72
47716;BME280;33476;50.984;3.538;2024-03-29T06:02:04;99136.06;;;11.28;62.63
47716;BME280;33476;50.984;3.538;2024-03-29T06:04:29;99139.50;;;11.28;62.84
47716;BME280;33476;50.984;3.538;2024-03-29T06:07:02;99122.63;;;11.21;62.93
47716;BME280;33476;50.984;3.538;2024-03-29T06:09:28;99127.63;;;11.24;63.27
47716;BME280;33476;50.984;3.538;2024-03-29T06:11:55;99122.75;;;11.19;63.35
47716;BME280;33476;50.984;3.538;2024-03-29T06:14:21;99108.75;;;11.20;63.63
47716;BME280;33476;50.984;3.538;2024-03-29T06:17:05;99116.69;;;11.19;63.66
47716;BME280;33476;50.984;3.538;2024-03-29T06:19:53;99112.06;;;11.22;63.60
47716;BME280;33476;50.984;3.538;2024-03-29T06:22:24;99122.38;;;11.24;63.50
47716;BME280;33476;50.984;3.538;2024-03-29T06:24:52;99113.97;;;11.20;63.87
47716;BME280;33476;50.984;3.538;2024-03-29T06:27:18;99121.19;;;11.17;63.98
47716;BME280;33476;50.984;3.538;2024-03-29T06:29:45;99136.19;;;11.26;63.79
47716;BME280;33476;50.984;3.538;2024-03-29T06:32:11;99146.88;;;11.34;63.70
47716;BME280;33476;50.984;3.538;2024-03-29T06:34:36;99152.19;;;11.33;63.68
47716;BME280;33476;50.984;3.538;2024-03-29T06:37:02;99141.75;;;11.21;64.00
47716;BME280;33476;50.984;3.538;2024-03-29T06:39:28;99156.72;;;11.19;64.14
47716;BME280;33476;50.984;3.538;2024-03-29T06:41:53;99153.50;;;11.16;64.40
47716;BME280;33476;50.984;3.538;2024-03-29T06:44:19;99141.50;;;11.13;64.60
47716;BME280;33476;50.984;3.538;2024-03-29T06:46:46;99144.63;;;11.18;64.71
47716;BME280;33476;50.984;3.538;2024-03-29T06:49:11;99148.88;;;11.31;64.23
47716;BME280;33476;50.984;3.538;2024-03-29T06:51:39;99167.66;;;11.36;63.98
47716;BME280;33476;50.984;3.538;2024-03-29T06:54:05;99164.56;;;11.42;63.70
47716;BME280;33476;50.984;3.538;2024-03-29T06:56:30;99160.19;;;11.42;63.69
47716;BME280;33476;50.984;3.538;2024-03-29T06:58:56;99150.06;;;11.38;64.17
47716;BME280;33476;50.984;3.538;2024-03-29T07:01:21;99137.25;;;11.35;64.34
47716;BME280;33476;50.984;3.538;2024-03-29T07:03:47;99141.53;;;11.36;64.19
47716;BME280;33476;50.984;3.538;2024-03-29T07:06:12;99139.63;;;11.38;64.17
47716;BME280;33476;50.984;3.538;2024-03-29T07:08:38;99147.94;;;11.43;64.33
47716;BME280;33476;50.984;3.538;2024-03-29T07:11:04;99153.88;;;11.45;64.20
47716;BME280;33476;50.984;3.538;2024-03-29T07:13:30;99156.94;;;11.50;64.24
47716;BME280;33476;50.984;3.538;2024-03-29T07:15:59;99149.47;;;11.45;64.26
47716;BME280;33476;50.984;3.538;2024-03-29T07:18:25;99154.34;;;11.39;64.66
47716;BME280;33476;50.984;3.538;2024-03-29T07:20:50;99144.13;;;11.47;64.59
47716;BME280;33476;50.984;3.538;2024-03-29T07:23:16;99141.25;;;11.50;64.71
47716;BME280;33476;50.984;3.538;2024-03-29T07:25:44;99146.28;;;11.53;64.67
47716;BME280;33476;50.984;3.538;2024-03-29T07:28:09;99136.50;;;11.55;64.55
47716;BME280;33476;50.984;3.538;2024-03-29T07:30:36;99133.06;;;11.54;64.66
47716;BME280;33476;50.984;3.538;2024-03-29T07:33:04;99136.25;;;11.58;64.55
47716;BME280;33476;50.984;3.538;2024-03-29T07:35:30;99141.38;;;11.71;64.36
47716;BME280;33476;50.984;3.538;2024-03-29T07:37:55;99144.81;;;11.82;64.34
47716;BME280;33476;50.984;3.538;2024-03-29T07:40:22;99150.16;;;11.92;64.03
47716;BME280;33476;50.984;3.538;2024-03-29T07:42:47;99154.88;;;11.98;63.54
47716;BME280;33476;50.984;3.538;2024-03-29T07:45:13;99168.31;;;12.05;63.78
47716;BME280;33476;50.984;3.538;2024-03-29T07:47:38;99161.50;;;12.14;63.56
47716;BME280;33476;50.984;3.538;2024-03-29T07:50:04;99167.69;;;12.13;63.17
47716;BME280;33476;50.984;3.538;2024-03-29T07:52:32;99161.06;;;11.97;63.54
47716;BME280;33476;50.984;3.538;2024-03-29T07:54:57;99183.22;;;11.93;63.82
47716;BME280;33476;50.984;3.538;2024-03-29T07:57:22;99180.72;;;11.92;64.01
47716;BME280;33476;50.984;3.538;2024-03-29T07:59:50;99189.63;;;12.00;63.74
47716;BME280;33476;50.984;3.538;2024-03-29T08:02:15;99185.69;;;12.06;63.69
47716;BME280;33476;50.984;3.538;2024-03-29T08:04:41;99207.00;;;12.01;63.69
47716;BME280;33476;50.984;3.538;2024-03-29T08:07:08;99201.16;;;11.98;63.96
47716;BME280;33476;50.984;3.538;2024-03-29T08:09:33;99205.22;;;12.02;63.63
47716;BME280;33476;50.984;3.538;2024-03-29T08:11:59;99209.22;;;12.06;63.62
47716;BME280;33476;50.984;3.538;2024-03-29T08:14:25;99215.06;;;12.09;63.42
47716;BME280;33476;50.984;3.538;2024-03-29T08:16:53;99201.16;;;12.09;63.29
47716;BME280;33476;50.984;3.538;2024-03-29T08:19:19;99208.75;;;12.12;63.45
47716;BME280;33476;50.984;3.538;2024-03-29T08:21:44;99194.47;;;12.05;63.24
47716;BME280;33476;50.984;3.538;2024-03-29T08:24:10;99206.03;;;12.02;63.45
47716;BME280;33476;50.984;3.538;2024-03-29T08:26:36;99205.66;;;12.07;63.80
47716;BME280;33476;50.984;3.538;2024-03-29T08:29:02;99203.25;;;12.15;63.43
47716;BME280;33476;50.984;3.538;2024-03-29T08:31:28;99208.84;;;12.22;63.35
47716;BME280;33476;50.984;3.538;2024-03-29T08:33:53;99208.13;;;12.20;63.38
47716;BME280;33476;50.984;3.538;2024-03-29T08:36:19;99202.91;;;12.20;63.22
47716;BME280;33476;50.984;3.538;2024-03-29T08:38:44;99212.16;;;12.24;63.21
47716;BME280;33476;50.984;3.538;2024-03-29T08:41:11;99215.50;;;12.26;63.47
47716;BME280;33476;50.984;3.538;2024-03-29T08:43:37;99211.66;;;12.30;63.21
47716;BME280;33476;50.984;3.538;2024-03-29T08:46:02;99220.97;;;12.34;63.20
47716;BME280;33476;50.984;3.538;2024-03-29T08:48:28;99224.53;;;12.33;63.33
47716;BME280;33476;50.984;3.538;2024-03-29T08:50:54;99225.94;;;12.37;63.29
47716;BME280;33476;50.984;3.538;2024-03-29T08:53:20;99217.47;;;12.45;63.02
47716;BME280;33476;50.984;3.538;2024-03-29T08:55:47;99224.69;;;12.52;62.80
47716;BME280;33476;50.984;3.538;2024-03-29T08:58:15;99226.22;;;12.55;62.92
47716;BME280;33476;50.984;3.538;2024-03-29T09:00:41;99233.94;;;12.56;62.90
47716;BME280;33476;50.984;3.538;2024-03-29T09:03:07;99241.09;;;12.54;63.09
47716;BME280;33476;50.984;3.538;2024-03-29T09:05:32;99238.97;;;12.48;62.98
47716;BME280;33476;50.984;3.538;2024-03-29T09:07:57;99244.44;;;12.56;63.19
47716;BME280;33476;50.984;3.538;2024-03-29T09:10:23;99260.16;;;12.56;62.83
47716;BME280;33476;50.984;3.538;2024-03-29T09:12:50;99271.56;;;12.55;63.11
47716;BME280;33476;50.984;3.538;2024-03-29T09:15:15;99273.00;;;12.59;62.87
47716;BME280;33476;50.984;3.538;2024-03-29T09:17:42;99273.84;;;12.60;63.15
47716;BME280;33476;50.984;3.538;2024-03-29T09:20:08;99268.81;;;12.68;62.77
47716;BME280;33476;50.984;3.538;2024-03-29T09:22:34;99260.63;;;12.82;62.25
47716;BME280;33476;50.984;3.538;2024-03-29T09:24:59;99249.03;;;12.96;62.41
47716;BME280;33476;50.984;3.538;2024-03-29T09:27:26;99241.69;;;13.11;61.79
47716;BME280;33476;50.984;3.538;2024-03-29T09:29:52;99237.69;;;13.28;61.99
47716;BME280;33476;50.984;3.538;2024-03-29T09:32:18;99242.66;;;13.52;61.46
47716;BME280;33476;50.984;3.538;2024-03-29T09:34:45;99236.75;;;13.59;61.19
47716;BME280;33476;50.984;3.538;2024-03-29T09:37:10;99252.72;;;13.77;60.85
47716;BME280;33476;50.984;3.538;2024-03-29T09:39:36;99249.94;;;13.78;60.43
47716;BME280;33476;50.984;3.538;2024-03-29T09:42:03;99256.63;;;13.92;59.63
47716;BME280;33476;50.984;3.538;2024-03-29T09:44:33;99264.94;;;13.97;59.54
47716;BME280;33476;50.984;3.538;2024-03-29T09:47:05;99247.69;;;14.04;59.42
47716;BME280;33476;50.984;3.538;2024-03-29T09:49:32;99242.50;;;14.24;59.05
47716;BME280;33476;50.984;3.538;2024-03-29T09:52:00;99264.72;;;14.20;58.79
47716;BME280;33476;50.984;3.538;2024-03-29T09:54:28;99261.28;;;14.29;58.72
47716;BME280;33476;50.984;3.538;2024-03-29T09:56:57;99265.34;;;14.43;58.37
47716;BME280;33476;50.984;3.538;2024-03-29T09:59:23;99258.03;;;14.56;57.88
47716;BME280;33476;50.984;3.538;2024-03-29T10:01:50;99276.19;;;14.69;57.22
47716;BME280;33476;50.984;3.538;2024-03-29T10:04:17;99246.44;;;14.68;57.18
47716;BME280;33476;50.984;3.538;2024-03-29T10:06:46;99264.28;;;14.84;56.96
47716;BME280;33476;50.984;3.538;2024-03-29T10:09:14;99276.19;;;15.07;56.84
47716;BME280;33476;50.984;3.538;2024-03-29T10:11:40;99275.59;;;15.13;56.26
47716;BME280;33476;50.984;3.538;2024-03-29T10:14:06;99268.53;;;15.33;55.89
47716;BME280;33476;50.984;3.538;2024-03-29T10:16:31;99275.00;;;15.58;55.34
47716;BME280;33476;50.984;3.538;2024-03-29T10:18:59;99270.03;;;15.65;55.00
47716;BME280;33476;50.984;3.538;2024-03-29T10:21:25;99268.44;;;15.82;54.81
47716;BME280;33476;50.984;3.538;2024-03-29T10:23:53;99286.53;;;15.94;53.98
47716;BME280;33476;50.984;3.538;2024-03-29T10:26:20;99284.59;;;15.87;53.80
47716;BME280;33476;50.984;3.538;2024-03-29T10:28:47;99287.53;;;15.84;54.11
47716;BME280;33476;50.984;3.538;2024-03-29T10:31:13;99266.78;;;15.71;53.62
47716;BME280;33476;50.984;3.538;2024-03-29T10:33:42;99268.06;;;15.67;53.57
47716;BME280;33476;50.984;3.538;2024-03-29T10:36:08;99264.75;;;15.65;53.61
47716;BME280;33476;50.984;3.538;2024-03-29T10:38:35;99250.22;;;15.61;53.46
47716;BME280;33476;50.984;3.538;2024-03-29T10:41:01;99247.84;;;15.67;53.54
47716;BME280;33476;50.984;3.538;2024-03-29T10:43:29;99249.63;;;15.67;53.31
47716;BME280;33476;50.984;3.538;2024-03-29T10:45:55;99247.94;;;15.76;52.86
47716;BME280;33476;50.984;3.538;2024-03-29T10:48:25;99252.38;;;15.75;52.71
47716;BME280;33476;50.984;3.538;2024-03-29T10:50:53;99257.34;;;15.78;52.52
47716;BME280;33476;50.984;3.538;2024-03-29T10:53:22;99265.91;;;15.80;52.25
47716;BME280;33476;50.984;3.538;2024-03-29T10:55:48;99277.28;;;15.90;52.02
47716;BME280;33476;50.984;3.538;2024-03-29T10:58:16;99287.91;;;15.98;51.51
47716;BME280;33476;50.984;3.538;2024-03-29T11:00:47;99272.88;;;16.09;51.53
47716;BME280;33476;50.984;3.538;2024-03-29T11:03:20;99281.81;;;16.25;51.11
47716;BME280;33476;50.984;3.538;2024-03-29T11:05:49;99276.53;;;16.25;50.81
47716;BME280;33476;50.984;3.538;2024-03-29T11:08:22;99289.25;;;16.30;50.92
47716;BME280;33476;50.984;3.538;2024-03-29T11:10:50;99298.31;;;16.45;50.37
47716;BME280;33476;50.984;3.538;2024-03-29T11:16:14;99285.69;;;16.49;50.46
47716;BME280;33476;50.984;3.538;2024-03-29T11:18:42;99296.47;;;16.55;50.23
47716;BME280;33476;50.984;3.538;2024-03-29T11:21:08;99283.81;;;16.59;50.41
47716;BME280;33476;50.984;3.538;2024-03-29T11:23:36;99285.47;;;16.60;50.11
47716;BME280;33476;50.984;3.538;2024-03-29T11:26:02;99309.50;;;16.57;49.77
47716;BME280;33476;50.984;3.538;2024-03-29T11:28:34;99299.88;;;16.38;49.48
47716;BME280;33476;50.984;3.538;2024-03-29T11:31:01;99299.84;;;16.48;49.59
47716;BME280;33476;50.984;3.538;2024-03-29T11:33:33;99310.97;;;16.42;49.60
47716;BME280;33476;50.984;3.538;2024-03-29T11:36:24;99319.75;;;16.33;49.58
47716;BME280;33476;50.984;3.538;2024-03-29T11:38:53;99304.06;;;16.41;49.67
47716;BME280;33476;50.984;3.538;2024-03-29T11:41:26;99288.47;;;16.47;49.60
47716;BME280;33476;50.984;3.538;2024-03-29T11:43:56;99291.78;;;16.49;49.29
47716;BME280;33476;50.984;3.538;2024-03-29T11:46:22;99294.13;;;16.52;49.53
47716;BME280;33476;50.984;3.538;2024-03-29T11:48:48;99303.25;;;16.58;49.35
47716;BME280;33476;50.984;3.538;2024-03-29T11:51:22;99305.56;;;16.61;49.41
47716;BME280;33476;50.984;3.538;2024-03-29T11:53:49;99318.03;;;16.69;49.34
47716;BME280;33476;50.984;3.538;2024-03-29T11:56:18;99309.75;;;16.64;49.19
47716;BME280;33476;50.984;3.538;2024-03-29T11:58:43;99305.34;;;16.54;49.31
47716;BME280;33476;50.984;3.538;2024-03-29T12:01:09;99319.38;;;16.55;49.06
47716;BME280;33476;50.984;3.538;2024-03-29T12:03:39;99313.25;;;16.54;48.79
47716;BME280;33476;50.984;3.538;2024-03-29T12:06:08;99320.03;;;16.57;48.70
47716;BME280;33476;50.984;3.538;2024-03-29T12:08:35;99320.72;;;16.59;48.82
47716;BME280;33476;50.984;3.538;2024-03-29T12:11:02;99314.31;;;16.62;48.59
47716;BME280;33476;50.984;3.538;2024-03-29T12:13:28;99317.88;;;16.70;48.27
47716;BME280;33476;50.984;3.538;2024-03-29T12:15:54;99316.63;;;16.74;47.95
47716;BME280;33476;50.984;3.538;2024-03-29T12:18:21;99302.69;;;16.82;48.15
47716;BME280;33476;50.984;3.538;2024-03-29T12:20:48;99306.09;;;16.92;48.04
47716;BME280;33476;50.984;3.538;2024-03-29T12:23:16;99318.13;;;16.95;47.53
47716;BME280;33476;50.984;3.538;2024-03-29T12:25:41;99317.47;;;16.93;47.47
47716;BME280;33476;50.984;3.538;2024-03-29T12:28:07;99297.66;;;17.06;47.43
47716;BME280;33476;50.984;3.538;2024-03-29T12:30:34;99312.16;;;17.28;47.44
47716;BME280;33476;50.984;3.538;2024-03-29T12:33:07;99313.03;;;17.37;47.01
47716;BME280;33476;50.984;3.538;2024-03-29T12:35:34;99318.88;;;17.40;46.50
47716;BME280;33476;50.984;3.538;2024-03-29T12:38:01;99353.09;;;17.32;46.18
47716;BME280;33476;50.984;3.538;2024-03-29T12:40:27;99319.34;;;17.18;45.88
47716;BME280;33476;50.984;3.538;2024-03-29T12:42:55;99330.19;;;17.15;46.08
47716;BME280;33476;50.984;3.538;2024-03-29T12:45:21;99323.03;;;17.07;45.84
47716;BME280;33476;50.984;3.538;2024-03-29T12:47:48;99303.13;;;16.95;46.01
47716;BME280;33476;50.984;3.538;2024-03-29T12:50:28;99318.59;;;16.90;46.24
47716;BME280;33476;50.984;3.538;2024-03-29T12:52:58;99317.94;;;16.88;46.22
47716;BME280;33476;50.984;3.538;2024-03-29T12:55:25;99328.41;;;16.98;46.18
47716;BME280;33476;50.984;3.538;2024-03-29T12:57:55;99328.09;;;17.01;46.24
47716;BME280;33476;50.984;3.538;2024-03-29T13:00:21;99335.84;;;17.02;46.50